createdAt,value
2019-05-30T00:00:37.354Z,95097.03
2019-05-30T00:03:04.398Z,95097.05
2019-05-30T00:05:30.755Z,95093.23
2019-05-30T00:10:24.098Z,95088.81
2019-05-30T00:12:50.735Z,95087.41
2019-05-30T00:15:17.394Z,95087.68
2019-05-30T00:17:44.033Z,95086.75
2019-05-30T00:20:10.683Z,95092.95
2019-05-30T00:22:37.362Z,95091.66
2019-05-30T00:25:04.315Z,95091.11
2019-05-30T00:27:30.644Z,95092.19
2019-05-30T00:29:57.302Z,95089.33
2019-05-30T00:32:23.937Z,95092.00
2019-05-30T00:34:50.617Z,95088.66
2019-05-30T00:37:17.252Z,95087.38
2019-05-30T00:39:46.535Z,95085.86
2019-05-30T00:42:13.173Z,95089.83
2019-05-30T00:44:39.865Z,95095.56
2019-05-30T00:47:06.532Z,95095.66
2019-05-30T00:49:33.223Z,95100.67
2019-05-30T00:52:00.522Z,95096.27
2019-05-30T00:54:26.507Z,95090.93
2019-05-30T00:56:53.156Z,95098.13
2019-05-30T00:59:19.858Z,95108.05
2019-05-30T01:01:46.497Z,95106.25
2019-05-30T01:04:13.140Z,95112.59
2019-05-30T01:06:39.798Z,95102.75
2019-05-30T01:09:07.429Z,95114.84
2019-05-30T01:11:33.172Z,95106.00
2019-05-30T01:14:00.867Z,95113.38
2019-05-30T01:16:26.477Z,95116.06
2019-05-30T01:18:53.111Z,95118.46
2019-05-30T01:21:19.796Z,95117.58
2019-05-30T01:23:46.433Z,95118.97
2019-05-30T01:26:13.108Z,95122.18
2019-05-30T01:28:39.745Z,95124.48
2019-05-30T01:31:11.002Z,95125.63
2019-05-30T01:33:33.033Z,95132.15
2019-05-30T01:35:59.768Z,95123.56
2019-05-30T01:38:26.393Z,95127.95
2019-05-30T01:40:53.054Z,95130.00
2019-05-30T01:43:19.692Z,95136.66
2019-05-30T01:45:46.360Z,95139.31
2019-05-30T01:48:12.998Z,95139.28
2019-05-30T01:50:39.636Z,95137.04
2019-05-30T01:53:06.737Z,95134.98
2019-05-30T01:55:32.961Z,95133.72
2019-05-30T01:58:01.505Z,95134.45
2019-05-30T02:00:26.245Z,95127.79
2019-05-30T02:02:52.890Z,95136.21
2019-05-30T02:07:46.174Z,95142.77
2019-05-30T02:10:12.815Z,95143.56
2019-05-30T02:12:39.475Z,95133.67
2019-05-30T02:15:06.113Z,95141.77
2019-05-30T02:17:32.764Z,95150.59
2019-05-30T02:19:59.688Z,95144.91
2019-05-30T02:22:26.088Z,95143.18
2019-05-30T02:24:52.730Z,95138.22
2019-05-30T02:27:19.381Z,95139.99
2019-05-30T02:29:46.056Z,95133.34
2019-05-30T02:32:12.712Z,95144.16
2019-05-30T02:34:39.384Z,95148.32
2019-05-30T02:37:07.778Z,95153.13
2019-05-30T02:39:32.673Z,95150.56
2019-05-30T02:42:00.811Z,95156.91
2019-05-30T02:44:25.990Z,95151.73
2019-05-30T02:46:52.626Z,95150.47
2019-05-30T02:49:19.271Z,95149.45
2019-05-30T02:51:45.917Z,95152.33
2019-05-30T02:54:13.270Z,95150.34
2019-05-30T02:56:39.230Z,95160.44
2019-05-30T02:59:06.747Z,95156.53
2019-05-30T03:01:32.517Z,95159.56
2019-05-30T03:06:25.810Z,95149.28
2019-05-30T03:08:52.454Z,95147.10
2019-05-30T03:11:19.091Z,95154.92
2019-05-30T03:13:45.744Z,95150.98
2019-05-30T03:16:13.622Z,95155.13
2019-05-30T03:18:39.046Z,95153.00
2019-05-30T03:21:08.083Z,95155.81
2019-05-30T03:23:32.340Z,95152.28
2019-05-30T03:25:58.999Z,95147.61
2019-05-30T03:28:25.639Z,95147.30
2019-05-30T03:30:52.289Z,95155.45
2019-05-30T03:33:37.705Z,95147.61
2019-05-30T03:35:45.575Z,95158.60
2019-05-30T03:38:13.512Z,95159.02
2019-05-30T03:40:38.853Z,95159.61
2019-05-30T03:43:05.996Z,95161.63
2019-05-30T03:45:32.133Z,95163.88
2019-05-30T03:47:58.905Z,95167.08
2019-05-30T03:52:52.080Z,95170.94
2019-05-30T03:55:18.745Z,95163.73
2019-05-30T05:23:41.517Z,95225.49
2019-05-30T05:26:08.237Z,95235.55
2019-05-30T05:28:34.873Z,95244.56
2019-05-30T05:31:01.513Z,95244.27
2019-05-30T05:33:28.170Z,95248.26
2019-05-30T05:35:54.830Z,95244.45
2019-05-30T05:38:22.404Z,95249.89
2019-05-30T05:40:48.218Z,95243.58
2019-05-30T05:43:16.557Z,95255.35
2019-05-30T05:45:41.543Z,95255.12
2019-05-30T05:50:34.840Z,95253.48
2019-05-30T05:53:01.580Z,95251.43
2019-05-30T05:55:29.158Z,95251.86
2019-05-30T05:57:54.938Z,95251.14
2019-05-30T06:00:21.592Z,95263.16
2019-05-30T06:02:48.263Z,95265.11
2019-05-30T06:05:15.916Z,95256.81
2019-05-30T06:07:41.611Z,95262.21
2019-05-30T06:10:08.250Z,95260.70
2019-05-30T06:12:34.925Z,95260.30
2019-05-30T06:15:04.434Z,95257.50
2019-05-30T06:17:31.065Z,95266.23
2019-05-30T06:19:57.702Z,95264.45
2019-05-30T06:22:25.539Z,95259.08
2019-05-30T06:24:51.032Z,95253.70
2019-05-30T06:27:17.823Z,95263.70
2019-05-30T06:29:44.376Z,95276.30
2019-05-30T06:32:11.013Z,95278.42
2019-05-30T06:34:39.619Z,95277.77
2019-05-30T06:37:04.346Z,95273.22
2019-05-30T06:39:31.039Z,95274.52
2019-05-30T06:41:57.697Z,95273.45
2019-05-30T06:44:24.355Z,95273.78
2019-05-30T06:46:51.031Z,95272.63
2019-05-30T06:49:17.707Z,95273.86
2019-05-30T06:51:44.344Z,95274.36
2019-05-30T06:54:10.988Z,95270.81
2019-05-30T06:56:37.643Z,95264.94
2019-05-30T06:59:04.387Z,95267.63
2019-05-30T07:01:32.061Z,95266.81
2019-05-30T07:03:57.723Z,95276.34
2019-05-30T07:06:25.308Z,95273.44
2019-05-30T07:08:50.941Z,95260.23
2019-05-30T07:11:17.585Z,95272.95
2019-05-30T07:13:44.216Z,95273.84
2019-05-30T07:16:10.879Z,95267.89
2019-05-30T07:18:37.516Z,95270.05
2019-05-30T07:23:31.952Z,95270.05
2019-05-30T07:25:57.528Z,95270.92
2019-05-30T07:28:24.243Z,95268.14
2019-05-30T07:30:50.885Z,95270.12
2019-05-30T07:35:44.254Z,95270.75
2019-05-30T07:38:10.995Z,95271.61
2019-05-30T07:40:37.636Z,95277.42
2019-05-30T07:43:04.342Z,95278.25
2019-05-30T07:45:31.599Z,95277.66
2019-05-30T07:47:58.252Z,95273.67
2019-05-30T07:50:26.189Z,95277.66
2019-05-30T07:52:51.563Z,95268.30
2019-05-30T07:57:44.852Z,95265.00
2019-05-30T08:00:11.540Z,95263.49
2019-05-30T08:02:38.171Z,95259.86
2019-05-30T08:05:04.886Z,95262.73
2019-05-30T08:07:32.675Z,95265.55
2019-05-30T08:09:58.213Z,95261.94
2019-05-30T08:12:24.852Z,95265.31
2019-05-30T08:14:51.494Z,95266.47
2019-05-30T08:17:18.294Z,95257.94
2019-05-30T08:19:44.930Z,95259.14
2019-05-30T08:22:11.590Z,95264.45
2019-05-30T08:24:38.898Z,95259.92
2019-05-30T08:27:04.886Z,95265.99
2019-05-30T08:29:32.194Z,95259.64
2019-05-30T08:31:59.376Z,95260.31
2019-05-30T08:34:24.904Z,95252.41
2019-05-30T08:36:51.533Z,95256.38
2019-05-30T08:39:18.184Z,95255.42
2019-05-30T08:41:44.840Z,95259.39
2019-05-30T08:44:11.497Z,95258.14
2019-05-30T08:46:38.129Z,95257.20
2019-05-30T08:49:04.819Z,95256.31
2019-05-30T08:51:32.174Z,95255.85
2019-05-30T08:53:58.159Z,95258.69
2019-05-30T08:56:27.828Z,95260.90
2019-05-30T08:58:51.480Z,95252.09
2019-05-30T09:01:18.127Z,95261.77
2019-05-30T09:03:46.154Z,95259.70
2019-05-30T09:06:11.409Z,95260.60
2019-05-30T09:08:38.058Z,95259.84
2019-05-30T09:11:04.776Z,95251.95
2019-05-30T09:13:31.398Z,95253.84
2019-05-30T09:18:24.690Z,95249.86
2019-05-30T09:20:51.347Z,95248.41
2019-05-30T09:23:17.996Z,95247.78
2019-05-30T09:25:46.957Z,95243.10
2019-05-30T09:28:11.322Z,95248.32
2019-05-30T09:30:39.505Z,95250.77
2019-05-30T09:33:04.645Z,95255.50
2019-05-30T09:35:31.287Z,95244.27
2019-05-30T09:37:57.937Z,95242.75
2019-05-30T09:40:24.577Z,95240.74
2019-05-30T09:42:51.249Z,95240.39
2019-05-30T09:45:18.080Z,95239.09
2019-05-30T09:47:46.626Z,95237.41
2019-05-30T09:50:11.302Z,95239.01
2019-05-30T09:52:37.975Z,95239.12
2019-05-30T09:55:04.656Z,95243.72
2019-05-30T09:57:31.312Z,95246.67
2019-05-30T09:59:57.954Z,95244.83
2019-05-30T10:02:24.620Z,95246.44
2019-05-30T10:04:52.492Z,95241.62
2019-05-30T10:07:17.898Z,95234.09
2019-05-30T10:09:45.617Z,95233.88
2019-05-30T10:12:11.186Z,95225.88
2019-05-30T10:14:37.836Z,95233.64
2019-05-30T10:17:04.518Z,95234.70
2019-05-30T10:19:31.161Z,95222.95
2019-05-30T10:21:57.798Z,95228.38
2019-05-30T10:24:24.475Z,95229.98
2019-05-30T10:26:51.168Z,95218.05
2019-05-30T10:29:17.793Z,95212.59
2019-05-30T10:31:45.055Z,95215.64
2019-05-30T10:34:11.081Z,95219.18
2019-05-30T10:36:44.418Z,95216.98
2019-05-30T10:39:04.410Z,95220.33
2019-05-30T10:41:31.051Z,95220.78
2019-05-30T10:43:57.732Z,95218.69
2019-05-30T10:46:24.369Z,95222.55
2019-05-30T10:48:51.563Z,95220.78
2019-05-30T10:51:17.717Z,95221.92
2019-05-30T10:53:46.704Z,95219.89
2019-05-30T10:56:11.193Z,95212.86
2019-05-30T10:58:37.784Z,95213.95
2019-05-30T11:01:04.468Z,95219.24
2019-05-30T11:03:31.113Z,95219.17
2019-05-30T11:05:57.801Z,95217.25
2019-05-30T11:08:24.484Z,95213.27
2019-05-30T11:10:51.123Z,95216.19
2019-05-30T11:13:17.789Z,95214.33
2019-05-30T11:15:44.469Z,95214.55
2019-05-30T11:18:11.139Z,95208.52
2019-05-30T11:20:37.792Z,95206.87
2019-05-30T11:23:04.444Z,95202.73
2019-05-30T11:25:31.084Z,95200.95
2019-05-30T11:27:58.940Z,95210.03
2019-05-30T11:30:24.763Z,95209.81
2019-05-30T11:32:51.419Z,95211.28
2019-05-30T11:35:18.078Z,95210.12
2019-05-30T11:37:44.720Z,95202.73
2019-05-30T11:40:11.401Z,95200.77
2019-05-30T11:42:38.073Z,95207.23
2019-05-30T11:45:04.702Z,95210.44
2019-05-30T11:47:31.368Z,95209.62
2019-05-30T11:49:58.055Z,95206.72
2019-05-30T11:52:24.764Z,95206.34
2019-05-30T11:54:53.858Z,95207.75
2019-05-30T11:57:18.059Z,95209.13
2019-05-30T12:02:11.397Z,95200.92
2019-05-30T12:04:38.023Z,95200.65
2019-05-30T12:07:04.663Z,95197.22
2019-05-30T12:09:31.319Z,95200.30
2019-05-30T12:11:59.134Z,95201.45
2019-05-30T12:14:24.619Z,95204.63
2019-05-30T12:16:51.269Z,95197.75
2019-05-30T12:19:17.942Z,95193.70
2019-05-30T12:21:44.635Z,95191.17
2019-05-30T12:24:11.328Z,95196.02
2019-05-30T12:26:37.965Z,95198.05
2019-05-30T12:29:04.660Z,95201.21
2019-05-30T12:31:31.304Z,95199.48
2019-05-30T12:33:58.383Z,95192.97
2019-05-30T12:36:24.617Z,95198.62
2019-05-30T12:38:52.228Z,95198.16
2019-05-30T12:41:17.935Z,95204.14
2019-05-30T12:43:44.581Z,95205.78
2019-05-30T12:46:11.245Z,95208.05
2019-05-30T12:48:37.922Z,95197.41
2019-05-30T12:51:05.563Z,95193.09
2019-05-30T12:53:31.248Z,95197.79
2019-05-30T12:55:58.483Z,95204.95
2019-05-30T12:58:24.533Z,95200.22
2019-05-30T13:00:51.246Z,95197.83
2019-05-30T13:03:17.857Z,95198.98
2019-05-30T13:05:44.553Z,95197.90
2019-05-30T13:08:20.514Z,95198.98
2019-05-30T13:13:04.534Z,95197.56
2019-05-30T13:15:31.169Z,95203.39
2019-05-30T13:17:58.860Z,95209.88
2019-05-30T13:20:24.510Z,95207.53
2019-05-30T13:22:51.147Z,95199.73
2019-05-30T13:25:17.799Z,95207.03
2019-05-30T13:27:44.469Z,95211.53
2019-05-30T13:30:11.105Z,95210.58
2019-05-30T13:32:37.751Z,95213.64
2019-05-30T13:35:05.430Z,95218.86
2019-05-30T13:37:31.094Z,95211.62
2019-05-30T13:39:57.732Z,95216.13
2019-05-30T13:42:24.394Z,95213.18
2019-05-30T13:47:17.814Z,95212.73
2019-05-30T13:49:44.465Z,95211.14
2019-05-30T13:52:11.144Z,95214.01
2019-05-30T13:54:37.797Z,95210.93
2019-05-30T13:57:05.667Z,95207.59
2019-05-30T13:59:31.108Z,95207.42
2019-05-30T14:01:57.754Z,95198.00
2019-05-30T14:04:24.391Z,95204.08
2019-05-30T14:06:51.037Z,95208.83
2019-05-30T14:09:19.193Z,95206.56
2019-05-30T14:11:44.324Z,95200.50
2019-05-30T14:14:11.070Z,95202.86
2019-05-30T14:16:37.732Z,95196.28
2019-05-30T14:21:31.016Z,95198.67
2019-05-30T14:23:57.652Z,95197.90
2019-05-30T14:26:24.301Z,95205.98
2019-05-30T14:28:50.953Z,95194.55
2019-05-30T14:31:17.631Z,95189.62
2019-05-30T14:33:44.311Z,95198.81
2019-05-30T14:36:13.288Z,95200.19
2019-05-30T14:38:37.608Z,95199.31
2019-05-30T14:41:04.844Z,95199.61
2019-05-30T14:43:30.933Z,95197.54
2019-05-30T14:45:57.577Z,95199.73
2019-05-30T14:48:24.225Z,95199.67
2019-05-30T14:50:50.877Z,95194.95
2019-05-30T14:53:17.635Z,95204.83
2019-05-30T14:55:44.277Z,95191.17
2019-05-30T14:58:11.162Z,95192.05
2019-05-30T15:00:37.572Z,95191.19
2019-05-30T15:03:08.372Z,95192.81
2019-05-30T15:05:30.890Z,95187.33
2019-05-30T15:07:57.539Z,95187.05
2019-05-30T15:10:24.216Z,95190.89
2019-05-30T15:12:50.860Z,95186.54
2019-05-30T15:15:18.779Z,95185.95
2019-05-30T15:17:44.139Z,95179.25
2019-05-30T15:20:12.162Z,95186.28
2019-05-30T15:22:37.465Z,95183.64
2019-05-30T15:25:04.108Z,95180.09
2019-05-30T15:27:30.790Z,95190.63
2019-05-30T15:29:57.425Z,95184.66
2019-05-30T15:32:24.076Z,95185.27
2019-05-30T15:34:50.727Z,95182.59
2019-05-30T15:37:17.409Z,95181.45
2019-05-30T15:39:44.060Z,95180.81
2019-05-30T15:42:12.126Z,95186.67
2019-05-30T15:44:37.338Z,95192.62
2019-05-30T15:47:03.993Z,95192.44
2019-05-30T15:49:30.709Z,95190.34
2019-05-30T15:51:57.370Z,95194.78
2019-05-30T15:54:24.006Z,95191.73
2019-05-30T15:56:50.659Z,95189.98
2019-05-30T16:01:43.999Z,95188.71
2019-05-30T16:04:10.636Z,95189.80
2019-05-30T16:06:37.277Z,95190.73
2019-05-30T16:09:03.913Z,95191.75
2019-05-30T16:11:30.589Z,95200.46
2019-05-30T16:13:57.237Z,95201.77
2019-05-30T16:16:38.801Z,95197.02
2019-05-30T16:18:50.544Z,95195.88
2019-05-30T16:21:18.603Z,95198.79
2019-05-30T16:23:43.864Z,95196.42
2019-05-30T16:26:10.500Z,95192.13
2019-05-30T16:28:37.180Z,95197.06
2019-05-30T16:31:03.819Z,95196.34
2019-05-30T16:33:30.489Z,95205.44
2019-05-30T16:35:57.125Z,95195.11
2019-05-30T16:38:23.804Z,95190.14
2019-05-30T16:40:50.440Z,95189.21
2019-05-30T16:45:43.776Z,95190.23
2019-05-30T16:48:10.420Z,95195.02
2019-05-30T16:50:37.059Z,95195.71
2019-05-30T16:53:03.739Z,95193.48
2019-05-30T16:55:30.417Z,95191.87
2019-05-30T16:57:57.129Z,95196.52
2019-05-30T17:00:23.709Z,95193.50
2019-05-30T17:02:50.346Z,95196.23
2019-05-30T17:05:16.997Z,95199.02
2019-05-30T17:07:43.669Z,95197.08
2019-05-30T17:10:22.395Z,95201.54
2019-05-30T17:12:36.967Z,95209.88
2019-05-30T17:15:03.629Z,95209.16
2019-05-30T17:17:30.265Z,95209.03
2019-05-30T17:19:56.966Z,95205.63
2019-05-30T17:22:24.704Z,95203.52
2019-05-30T17:24:50.246Z,95209.98
2019-05-30T17:27:17.290Z,95205.06
2019-05-30T17:29:43.533Z,95209.16
2019-05-30T17:32:10.232Z,95205.15
2019-05-30T17:34:36.862Z,95210.28
2019-05-30T17:37:03.502Z,95212.92
2019-05-30T17:39:30.130Z,95208.89
2019-05-30T17:41:56.804Z,95208.70
2019-05-30T17:44:23.514Z,95208.23
2019-05-30T17:46:50.170Z,95213.24
2019-05-30T17:49:16.806Z,95205.45
2019-05-30T17:51:43.481Z,95216.98
2019-05-30T17:54:10.233Z,95212.78
2019-05-30T17:56:36.908Z,95212.17
2019-05-30T17:59:03.547Z,95214.10
2019-05-30T18:01:30.532Z,95211.20
2019-05-30T18:03:56.837Z,95230.11
2019-05-30T18:06:24.420Z,95233.55
2019-05-30T18:08:50.300Z,95229.95
2019-05-30T18:11:16.938Z,95237.95
2019-05-30T18:13:43.595Z,95235.00
2019-05-30T18:16:10.260Z,95242.34
2019-05-30T18:18:36.902Z,95243.23
2019-05-30T18:21:03.571Z,95249.16
2019-05-30T18:25:56.899Z,95252.34
2019-05-30T18:28:23.664Z,95248.78
2019-05-30T18:30:50.217Z,95255.70
2019-05-30T18:33:16.860Z,95268.37
2019-05-30T18:35:43.500Z,95274.03
2019-05-30T18:38:10.148Z,95277.09
2019-05-30T18:40:36.804Z,95285.81
2019-05-30T18:43:03.459Z,95278.42
2019-05-30T18:45:31.044Z,95287.16
2019-05-30T18:47:56.781Z,95284.45
2019-05-30T18:50:23.460Z,95289.98
2019-05-30T18:52:50.139Z,95290.41
2019-05-30T18:55:16.799Z,95290.34
2019-05-30T18:57:43.424Z,95293.86
2019-05-30T19:00:12.557Z,95295.26
2019-05-30T19:02:36.904Z,95287.20
2019-05-30T19:05:03.629Z,95289.88
2019-05-30T19:07:30.895Z,95294.38
2019-05-30T19:09:56.904Z,95296.80
2019-05-30T19:12:24.258Z,95298.98
2019-05-30T19:14:50.195Z,95302.74
2019-05-30T19:17:16.839Z,95310.46
2019-05-30T19:22:10.169Z,95320.45
2019-05-30T19:24:36.808Z,95321.40
2019-05-30T19:27:03.476Z,95327.06
2019-05-30T19:29:30.997Z,95326.40
2019-05-30T19:31:56.763Z,95333.59
2019-05-30T19:34:23.402Z,95325.05
2019-05-30T19:36:50.095Z,95325.83
2019-05-30T19:39:16.729Z,95323.81
2019-05-30T19:41:56.386Z,95329.12
2019-05-30T19:44:10.052Z,95325.85
2019-05-30T19:46:36.712Z,95319.88
2019-05-30T19:49:03.365Z,95326.34
2019-05-30T19:51:31.331Z,95320.34
2019-05-30T19:53:56.659Z,95318.17
2019-05-30T19:56:23.330Z,95323.88
2019-05-30T19:58:49.976Z,95318.93
2019-05-30T20:01:16.612Z,95330.16
2019-05-30T20:03:46.910Z,95325.51
2019-05-30T20:06:09.905Z,95330.91
2019-05-30T20:08:51.344Z,95339.36
2019-05-30T20:11:03.231Z,95336.22
2019-05-30T20:13:31.087Z,95342.25
2019-05-30T20:18:23.249Z,95334.81
2019-05-30T20:20:57.154Z,95321.72
2019-05-30T20:23:16.561Z,95324.36
2019-05-30T20:25:45.889Z,95329.93
2019-05-30T20:28:11.340Z,95333.48
2019-05-30T20:30:37.078Z,95331.07
2019-05-30T20:33:03.245Z,95339.42
2019-05-30T20:35:29.876Z,95338.31
2019-05-30T20:37:56.524Z,95339.83
2019-05-30T20:40:23.161Z,95343.73
2019-05-30T20:42:49.843Z,95336.56
2019-05-30T20:45:16.482Z,95344.36
2019-05-30T20:47:44.423Z,95338.95
2019-05-30T20:52:39.988Z,95338.20
2019-05-30T20:55:03.092Z,95341.34
2019-05-30T20:57:29.730Z,95342.00
2019-05-30T20:59:56.383Z,95349.31
2019-05-30T21:02:23.096Z,95350.92
2019-05-30T21:04:49.761Z,95349.53
2019-05-30T21:07:16.401Z,95357.71
2019-05-30T21:09:44.199Z,95358.06
2019-05-30T21:12:09.684Z,95363.02
2019-05-30T21:14:37.321Z,95368.58
2019-05-30T21:17:03.389Z,95375.28
2019-05-30T21:19:30.075Z,95377.42
2019-05-30T21:21:56.727Z,95369.22
2019-05-30T21:26:50.057Z,95372.51
2019-05-30T21:29:16.701Z,95367.83
2019-05-30T21:31:43.617Z,95366.84
2019-05-30T21:34:10.048Z,95371.62
2019-05-30T21:36:37.695Z,95375.29
2019-05-30T21:39:03.323Z,95377.17
2019-05-30T21:41:29.962Z,95379.70
2019-05-30T21:43:56.618Z,95379.95
2019-05-30T21:48:49.981Z,95374.91
2019-05-30T21:51:16.656Z,95372.03
2019-05-30T21:53:43.512Z,95373.53
2019-05-30T21:56:12.809Z,95373.27
2019-05-30T21:58:36.735Z,95380.59
2019-05-30T22:01:04.537Z,95373.79
2019-05-30T22:03:31.207Z,95369.98
2019-05-30T22:05:57.849Z,95371.49
2019-05-30T22:08:24.510Z,95382.33
2019-05-30T22:10:51.751Z,95376.63
2019-05-30T22:13:17.908Z,95378.87
2019-05-30T22:15:45.863Z,95374.56
2019-05-30T22:18:11.241Z,95376.06
2019-05-30T22:23:04.541Z,95374.11
2019-05-30T22:25:31.200Z,95376.80
2019-05-30T22:27:57.847Z,95373.02
2019-05-30T22:30:24.496Z,95375.80
2019-05-30T22:32:51.136Z,95380.98
2019-05-30T22:35:17.808Z,95375.16
2019-05-30T22:37:44.798Z,95372.78
2019-05-30T22:40:11.107Z,95374.14
2019-05-30T22:42:37.753Z,95372.28
2019-05-30T22:45:04.383Z,95367.61
2019-05-30T22:47:31.030Z,95370.51
2019-05-30T22:49:57.683Z,95374.30
2019-05-30T22:52:24.325Z,95376.31
2019-05-30T22:54:51.262Z,95354.64
2019-05-30T22:57:17.662Z,95363.34
2019-05-30T22:59:44.682Z,95361.83
2019-05-30T23:02:10.996Z,95364.34
2019-05-30T23:04:37.623Z,95371.53
2019-05-30T23:07:04.301Z,95369.78
2019-05-30T23:09:30.939Z,95369.27
2019-05-30T23:11:57.612Z,95359.95
2019-05-30T23:14:24.238Z,95358.91
2019-05-30T23:16:50.893Z,95363.08
2019-05-30T23:19:17.566Z,95363.95
2019-05-30T23:21:44.216Z,95366.05
2019-05-30T23:24:10.886Z,95366.53
2019-05-30T23:26:37.537Z,95366.02
2019-05-30T23:29:04.222Z,95369.39
2019-05-30T23:31:30.863Z,95366.36
2019-05-30T23:33:58.621Z,95369.62
2019-05-30T23:36:24.152Z,95371.36
2019-05-30T23:38:50.817Z,95373.27
2019-05-30T23:41:17.457Z,95372.60
2019-05-30T23:43:55.856Z,95372.59
2019-05-30T23:46:10.759Z,95366.49
2019-05-30T23:48:37.456Z,95366.98
2019-05-30T23:51:04.110Z,95358.26
2019-05-30T23:53:30.799Z,95364.42
2019-05-30T23:55:58.399Z,95366.44
2019-05-30T23:58:24.091Z,95354.95
